Time;durP1;ratioP1;P1;durP2;ratioP2;P2;SDS_P1;SDS_P2;PMS_P1;PMS_P2;Temp;Humidity;BMP_temperature;BMP_pressure;BME280_temperature;BME280_humidity;BME280_pressure;Samples;Min_cycle;Max_cycle;Signal;HPM_P1;HPM_P2
2023/04/14 00:02:12;;;;;;;30.27;18.60;;;9.30;99.90;;;;;;10463221;28;20225;-86
2023/04/14 00:07:53;;;;;;;23.47;16.60;;;9.30;99.90;;;;;;10465950;28;20300;-85
2023/04/14 00:13:15;;;;;;;24.70;16.47;;;9.30;99.90;;;;;;10463664;28;20198;-86
2023/04/14 00:18:36;;;;;;;22.27;16.53;;;9.40;99.90;;;;;;10463385;28;20341;-86
2023/04/14 00:23:57;;;;;;;27.20;19.23;;;9.50;99.90;;;;;;10465186;28;20380;-86
2023/04/14 00:29:18;;;;;;;26.77;17.03;;;9.50;99.90;;;;;;10451864;28;20237;-85
2023/04/14 00:34:40;;;;;;;25.67;17.53;;;9.50;99.90;;;;;;10476797;28;20365;-85
2023/04/14 00:40:02;;;;;;;25.67;17.63;;;9.50;99.90;;;;;;10408364;28;20194;-85
2023/04/14 00:45:26;;;;;;;22.77;16.80;;;9.50;99.90;;;;;;10422237;28;20218;-85
2023/04/14 00:50:47;;;;;;;24.70;17.67;;;9.50;99.90;;;;;;10434768;28;20536;-87
2023/04/14 00:56:08;;;;;;;24.50;17.63;;;9.40;99.90;;;;;;10448852;28;20428;-85
2023/04/14 01:01:32;;;;;;;25.87;17.23;;;9.50;99.90;;;;;;10462506;28;20198;-88
2023/04/14 01:06:53;;;;;;;20.93;16.33;;;9.50;99.90;;;;;;10457191;28;20231;-87
2023/04/14 01:12:59;;;;;;;19.70;15.10;;;9.60;99.90;;;;;;10463682;28;20378;-86
2023/04/14 01:18:53;;;;;;;20.90;14.57;;;9.70;99.90;;;;;;10470402;28;20291;-85
2023/04/14 01:25:06;;;;;;;17.07;13.60;;;9.70;99.90;;;;;;10468904;28;20520;-86
2023/04/14 01:30:49;;;;;;;21.67;15.73;;;9.80;99.90;;;;;;10329591;28;20256;-86
2023/04/14 01:36:14;;;;;;;19.07;14.67;;;9.70;99.90;;;;;;10310744;28;20248;-87
2023/04/14 01:41:41;;;;;;;22.57;15.43;;;9.70;99.90;;;;;;10358473;28;20194;-85
2023/04/14 01:47:06;;;;;;;25.50;17.00;;;9.70;99.90;;;;;;10313999;28;20255;-85
2023/04/14 01:52:29;;;;;;;20.37;15.37;;;9.70;99.90;;;;;;10340926;28;20218;-85
2023/04/14 01:57:53;;;;;;;28.77;19.73;;;9.70;99.90;;;;;;10340790;28;20209;-86
2023/04/14 02:03:20;;;;;;;25.70;18.97;;;9.70;99.90;;;;;;10362861;28;20215;-87
2023/04/14 02:08:42;;;;;;;26.23;18.83;;;9.70;99.90;;;;;;10457146;28;20479;-86
2023/04/14 02:14:06;;;;;;;27.83;18.77;;;9.70;99.90;;;;;;10468419;28;20188;-88
2023/04/14 02:19:29;;;;;;;25.53;17.67;;;9.80;99.90;;;;;;10454128;28;20199;-87
2023/04/14 02:24:53;;;;;;;26.47;17.23;;;9.80;99.90;;;;;;10451187;28;20202;-85
2023/04/14 02:30:23;;;;;;;24.33;16.43;;;9.80;99.90;;;;;;10478777;28;20546;-87
2023/04/14 02:35:55;;;;;;;22.13;16.37;;;9.90;99.90;;;;;;10486207;28;20238;-84
2023/04/14 02:41:30;;;;;;;32.63;21.70;;;9.90;99.90;;;;;;10466105;28;20210;-88
2023/04/14 02:47:02;;;;;;;60.97;33.37;;;9.90;99.90;;;;;;10428212;28;20231;-87
2023/04/14 02:52:30;;;;;;;69.10;39.23;;;9.90;99.90;;;;;;10425636;28;20228;-86
2023/04/14 02:57:53;;;;;;;83.83;46.93;;;9.90;99.90;;;;;;10429101;28;20238;-85
2023/04/14 03:03:17;;;;;;;67.20;42.50;;;9.90;99.90;;;;;;10500841;28;20219;-86
2023/04/14 03:08:40;;;;;;;43.90;27.10;;;9.90;99.90;;;;;;10502657;28;20216;-85
2023/04/14 03:14:02;;;;;;;33.97;20.20;;;9.90;99.90;;;;;;10479676;28;20223;-86
2023/04/14 03:19:26;;;;;;;27.47;17.13;;;9.90;99.90;;;;;;10465424;28;20281;-85
2023/04/14 03:24:49;;;;;;;23.33;15.90;;;9.70;99.90;;;;;;10477572;28;20205;-86
2023/04/14 03:30:13;;;;;;;23.17;16.07;;;9.70;99.90;;;;;;10440275;28;20225;-86
2023/04/14 03:35:36;;;;;;;24.63;16.97;;;9.80;99.90;;;;;;10464248;28;20249;-86
2023/04/14 03:41:02;;;;;;;24.20;16.33;;;9.80;99.90;;;;;;10464132;28;20211;-87
2023/04/14 03:46:23;;;;;;;20.38;15.05;;;9.80;99.90;;;;;;10464416;28;20237;-85
2023/04/14 03:51:48;;;;;;;18.67;13.10;;;9.80;99.90;;;;;;10450337;28;20234;-86
2023/04/14 03:57:11;;;;;;;17.20;12.97;;;9.80;99.90;;;;;;10448217;28;20214;-87
2023/04/14 04:02:35;;;;;;;17.43;12.57;;;9.90;99.90;;;;;;10492329;28;20199;-84
2023/04/14 04:08:01;;;;;;;18.80;13.93;;;9.90;99.90;;;;;;10505325;28;20576;-86
2023/04/14 04:13:25;;;;;;;20.43;14.00;;;9.90;99.90;;;;;;10476414;28;20199;-87
2023/04/14 04:18:48;;;;;;;21.00;14.43;;;10.00;99.90;;;;;;10464018;28;20187;-85
2023/04/14 04:24:18;;;;;;;20.37;14.03;;;9.90;99.90;;;;;;10450345;28;20198;-85
2023/04/14 04:29:40;;;;;;;16.37;12.53;;;10.00;99.90;;;;;;10461553;28;20222;-84
2023/04/14 04:35:03;;;;;;;17.33;11.27;;;10.00;99.90;;;;;;10435674;28;20231;-85
2023/04/14 04:40:24;;;;;;;14.70;10.17;;;10.00;99.90;;;;;;10421433;28;20209;-84
2023/04/14 04:46:04;;;;;;;16.77;12.00;;;10.00;99.90;;;;;;10438063;28;20207;-84
2023/04/14 04:51:27;;;;;;;16.47;11.83;;;10.00;99.90;;;;;;10429589;28;20552;-86
2023/04/14 04:56:49;;;;;;;14.27;10.07;;;10.00;99.90;;;;;;10439508;28;20203;-87
2023/04/14 05:02:11;;;;;;;13.53;9.97;;;10.00;99.90;;;;;;10470525;28;20225;-87
2023/04/14 05:07:32;;;;;;;11.93;10.23;;;10.20;99.90;;;;;;10470578;28;20221;-85
2023/04/14 05:12:54;;;;;;;11.50;9.93;;;10.20;99.90;;;;;;10469332;28;20291;-86
2023/04/14 05:18:15;;;;;;;14.40;9.53;;;10.20;99.90;;;;;;10470239;28;20192;-87
2023/04/14 05:23:37;;;;;;;21.60;13.53;;;10.30;99.90;;;;;;10469628;28;20219;-87
2023/04/14 05:28:59;;;;;;;65.90;34.47;;;10.40;99.90;;;;;;10466291;28;20238;-87
2023/04/14 05:34:20;;;;;;;180.88;74.00;;;10.50;99.90;;;;;;10469161;28;20244;-86
2023/04/14 05:39:42;;;;;;;204.83;81.13;;;10.60;99.90;;;;;;10469231;28;20551;-89
2023/04/14 05:45:03;;;;;;;95.93;42.30;;;10.70;99.90;;;;;;10466728;28;20206;-85
2023/04/14 05:50:25;;;;;;;61.57;31.80;;;10.80;99.90;;;;;;10455640;28;20246;-87
2023/04/14 05:55:47;;;;;;;34.77;19.17;;;10.80;99.90;;;;;;10455836;28;20222;-88
2023/04/14 06:01:09;;;;;;;34.28;19.77;;;11.10;99.90;;;;;;10455277;28;20210;-89
2023/04/14 06:06:31;;;;;;;21.73;15.65;;;11.10;99.90;;;;;;10430095;28;20199;-89
2023/04/14 06:11:52;;;;;;;19.17;13.68;;;11.30;99.90;;;;;;10444911;28;20238;-86
2023/04/14 06:17:14;;;;;;;15.82;9.90;;;11.40;99.90;;;;;;10442330;28;20480;-87
2023/04/14 06:22:35;;;;;;;13.35;10.88;;;11.40;99.90;;;;;;10466608;28;20428;-88
2023/04/14 06:27:56;;;;;;;19.50;11.40;;;11.40;99.90;;;;;;10457384;28;20224;-91
2023/04/14 06:33:18;;;;;;;18.42;12.65;;;11.50;99.90;;;;;;10463022;28;20238;-91
2023/04/14 06:38:39;;;;;;;16.80;12.90;;;11.60;99.90;;;;;;10472897;28;20275;-86
2023/04/14 06:44:01;;;;;;;13.80;11.68;;;11.70;99.90;;;;;;10470407;28;20207;-90
2023/04/14 06:49:23;;;;;;;16.15;11.73;;;11.80;99.90;;;;;;10468448;28;20265;-89
2023/04/14 06:54:44;;;;;;;13.35;10.27;;;12.10;99.90;;;;;;10482724;28;20482;-92
2023/04/14 07:00:06;;;;;;;18.08;12.52;;;12.40;99.90;;;;;;10480223;28;20216;-85
2023/04/14 07:05:27;;;;;;;17.88;11.35;;;13.00;99.90;;;;;;10466942;28;20211;-91
2023/04/14 07:10:57;;;;;;;16.85;10.65;;;13.20;99.90;;;;;;10480321;28;20225;-90
2023/04/14 07:16:19;;;;;;;19.23;10.75;;;13.70;99.90;;;;;;10467240;28;20213;-85
2023/04/14 07:21:40;;;;;;;14.07;9.43;;;14.30;99.90;;;;;;10419861;28;20301;-86
2023/04/14 07:27:02;;;;;;;15.20;8.60;;;15.20;99.90;;;;;;10457516;28;20199;-85
2023/04/14 07:32:23;;;;;;;10.82;7.20;;;15.60;99.90;;;;;;10434722;28;20246;-82
2023/04/14 07:37:45;;;;;;;10.48;7.90;;;16.00;99.90;;;;;;10420238;28;20195;-84
2023/04/14 07:43:07;;;;;;;8.27;7.47;;;16.60;99.90;;;;;;10501762;28;20203;-85
2023/04/14 07:48:28;;;;;;;10.48;7.15;;;17.30;97.60;;;;;;10417583;28;20239;-82
2023/04/14 07:53:51;;;;;;;8.35;6.43;;;18.40;91.80;;;;;;10432650;28;20219;-84
2023/04/14 07:59:12;;;;;;;9.57;7.18;;;19.20;86.90;;;;;;10442172;28;20211;-82
2023/04/14 08:04:35;;;;;;;10.55;6.55;;;19.70;44.60;;;;;;10458574;28;20204;-84
2023/04/14 08:09:56;;;;;;;10.85;6.82;;;19.90;37.40;;;;;;10472099;28;20227;-82
2023/04/14 08:15:18;;;;;;;9.88;6.35;;;20.30;29.90;;;;;;10441573;28;20214;-81
2023/04/14 08:20:40;;;;;;;7.68;6.28;;;20.10;30.20;;;;;;10442377;28;20479;-83
2023/04/14 08:26:03;;;;;;;7.60;5.90;;;20.40;55.50;;;;;;10449214;28;20255;-84
2023/04/14 08:31:24;;;;;;;10.10;7.63;;;20.30;28.30;;;;;;10462125;28;20235;-83
2023/04/14 08:36:48;;;;;;;8.73;6.25;;;20.00;30.50;;;;;;10471805;28;20236;-84
2023/04/14 08:42:14;;;;;;;10.25;7.25;;;19.10;47.70;;;;;;10457013;28;20196;-83
2023/04/14 08:47:38;;;;;;;7.85;5.95;;;18.80;45.80;;;;;;10468096;28;20207;-82
2023/04/14 08:53:04;;;;;;;7.88;6.78;;;19.40;37.70;;;;;;10456145;28;20191;-89
2023/04/14 10:40:12;;;;;;;3.78;3.25;;;21.00;18.50;;;;;;10593841;27;20546;-89
2023/04/14 10:45:51;;;;;;;4.20;3.80;;;21.30;17.90;;;;;;10559962;28;20275;-86
2023/04/14 10:51:16;;;;;;;3.95;3.50;;;21.70;16.40;;;;;;10560677;28;20197;-88
2023/04/14 10:56:37;;;;;;;3.50;3.20;;;21.90;16.90;;;;;;10575415;28;20258;-88
2023/04/14 11:01:59;;;;;;;18.20;12.35;;;21.70;16.50;;;;;;10575150;28;20204;-87
2023/04/14 11:07:20;;;;;;;6.75;5.47;;;22.10;16.50;;;;;;10529029;28;20226;-83
2023/04/14 11:12:43;;;;;;;6.25;3.10;;;22.10;15.90;;;;;;10536653;28;20199;-84
2023/04/14 11:18:27;;;;;;;4.95;3.63;;;22.10;15.10;;;;;;10562741;28;20477;-86
2023/04/14 11:23:48;;;;;;;8.48;5.70;;;22.00;16.60;;;;;;10532255;28;20202;-86
2023/04/14 11:29:10;;;;;;;6.85;5.10;;;22.00;16.40;;;;;;10565363;28;20209;-85
2023/04/14 11:34:33;;;;;;;7.43;5.25;;;22.30;17.20;;;;;;10539485;28;20260;-88
2023/04/14 11:39:54;;;;;;;5.85;4.95;;;21.70;17.10;;;;;;10512403;28;20247;-88
2023/04/14 11:45:15;;;;;;;5.95;5.43;;;21.40;18.40;;;;;;10541321;28;20467;-85
2023/04/14 11:50:37;;;;;;;6.93;5.75;;;21.30;18.40;;;;;;10487540;28;20486;-82
2023/04/14 11:55:59;;;;;;;6.85;6.15;;;21.50;19.20;;;;;;10476095;28;20238;-83
2023/04/14 12:01:24;;;;;;;5.97;5.38;;;21.00;18.90;;;;;;10503754;28;20199;-82
2023/04/14 12:06:45;;;;;;;6.45;5.78;;;20.30;20.10;;;;;;10501476;28;20278;-82
2023/04/14 12:12:12;;;;;;;6.07;5.47;;;19.90;22.10;;;;;;10503371;28;20209;-80
2023/04/14 12:17:33;;;;;;;6.03;4.20;;;19.40;23.20;;;;;;10516380;28;20289;-82
2023/04/14 12:23:02;;;;;;;6.05;4.70;;;19.50;24.00;;;;;;10511668;28;20199;-80
2023/04/14 12:28:27;;;;;;;5.68;4.97;;;19.90;24.90;;;;;;10483784;28;20211;-83
2023/04/14 12:33:49;;;;;;;7.57;5.20;;;19.40;24.30;;;;;;10493708;28;20222;-83
2023/04/14 12:39:11;;;;;;;11.85;6.40;;;19.10;27.80;;;;;;10489512;28;20279;-84
2023/04/14 12:44:32;;;;;;;8.77;5.13;;;19.00;30.30;;;;;;10478206;28;20207;-83
2023/04/14 12:49:54;;;;;;;10.48;7.13;;;18.80;32.50;;;;;;10483687;28;20202;-80
2023/04/14 12:55:29;;;;;;;9.93;7.50;;;18.90;39.30;;;;;;10483269;28;20188;-82
2023/04/14 13:00:51;;;;;;;8.55;6.97;;;19.00;34.50;;;;;;10476251;28;20204;-83
2023/04/14 13:06:16;;;;;;;11.40;8.13;;;18.90;38.30;;;;;;10479559;28;20252;-86
2023/04/14 13:11:37;;;;;;;9.43;6.68;;;18.70;35.90;;;;;;10487287;28;20530;-84
2023/04/14 13:16:59;;;;;;;13.75;7.47;;;18.20;40.20;;;;;;10515459;28;20245;-84
2023/04/14 13:22:20;;;;;;;25.48;15.30;;;18.20;46.40;;;;;;10488781;28;20232;-83
2023/04/14 13:27:41;;;;;;;14.98;10.40;;;18.00;55.30;;;;;;10500591;28;20226;-83
2023/04/14 13:33:03;;;;;;;9.02;7.47;;;17.80;53.20;;;;;;10486836;28;20195;-84
2023/04/14 13:38:24;;;;;;;14.95;9.98;;;17.40;65.50;;;;;;10476893;28;20588;-82
2023/04/14 13:43:47;;;;;;;38.60;10.88;;;17.30;69.20;;;;;;10479570;28;20186;-85
2023/04/14 13:49:08;;;;;;;9.80;8.05;;;17.10;82.00;;;;;;10499270;28;20254;-85
2023/04/14 13:54:29;;;;;;;7.68;6.78;;;16.70;84.70;;;;;;10499666;28;20515;-84
2023/04/14 13:59:51;;;;;;;8.40;6.95;;;16.60;89.10;;;;;;10500665;28;20236;-83
2023/04/14 14:05:14;;;;;;;11.60;7.68;;;16.50;85.00;;;;;;10492754;28;20210;-84
2023/04/14 14:10:35;;;;;;;10.43;6.65;;;16.60;90.00;;;;;;10459267;28;20206;-84
2023/04/14 14:15:56;;;;;;;11.25;6.72;;;16.40;88.70;;;;;;10487685;28;20405;-83
2023/04/14 14:21:17;;;;;;;6.07;5.47;;;16.30;86.10;;;;;;10499440;28;20208;-86
2023/04/14 14:26:39;;;;;;;13.70;8.85;;;16.40;88.50;;;;;;10482021;28;20268;-84
2023/04/14 14:32:01;;;;;;;8.43;6.60;;;16.40;84.90;;;;;;10492793;28;20213;-81
2023/04/14 14:37:22;;;;;;;9.10;7.18;;;16.30;89.80;;;;;;10511380;28;20266;-83
2023/04/14 14:42:44;;;;;;;8.38;7.13;;;16.20;92.80;;;;;;10523664;28;20444;-81
2023/04/14 14:48:05;;;;;;;8.90;7.03;;;16.40;92.70;;;;;;10514196;28;20419;-81
2023/04/14 14:53:26;;;;;;;10.13;8.10;;;16.30;90.50;;;;;;10532747;28;20277;-80
2023/04/14 14:58:47;;;;;;;13.32;8.25;;;16.30;91.20;;;;;;10534665;28;20231;-83
2023/04/14 15:04:10;;;;;;;11.07;7.63;;;16.40;92.20;;;;;;10507886;28;20485;-85
2023/04/14 15:09:32;;;;;;;10.73;8.10;;;16.40;90.00;;;;;;10502482;28;20210;-86
2023/04/14 15:14:53;;;;;;;8.93;6.57;;;16.40;86.50;;;;;;10517540;28;20255;-87
2023/04/14 15:20:15;;;;;;;12.02;6.85;;;16.10;88.60;;;;;;10527284;28;20220;-85
2023/04/14 15:25:37;;;;;;;16.38;8.43;;;16.20;91.00;;;;;;10532452;28;20197;-86
2023/04/14 15:30:58;;;;;;;13.57;9.00;;;16.40;93.60;;;;;;10518243;28;20196;-87
2023/04/14 15:36:20;;;;;;;12.68;8.07;;;16.10;94.60;;;;;;10519564;28;20236;-86
2023/04/14 15:41:41;;;;;;;10.40;7.03;;;16.00;95.50;;;;;;10535299;28;20398;-87
2023/04/14 15:47:03;;;;;;;9.95;8.30;;;15.90;95.90;;;;;;10536686;28;20267;-88
2023/04/14 15:52:25;;;;;;;15.40;10.32;;;15.70;96.20;;;;;;10519169;28;20213;-86
2023/04/14 15:57:46;;;;;;;20.58;13.13;;;15.60;98.90;;;;;;10492693;28;20267;-86
2023/04/14 16:03:10;;;;;;;12.18;9.35;;;15.50;99.70;;;;;;10511254;28;20197;-87
2023/04/14 16:08:31;;;;;;;14.02;10.95;;;15.30;99.90;;;;;;10537581;28;20201;-88
2023/04/14 16:13:53;;;;;;;15.15;10.05;;;15.20;99.90;;;;;;10509037;28;20201;-87
2023/04/14 16:19:15;;;;;;;15.68;10.77;;;15.10;99.90;;;;;;10502741;28;20221;-88
2023/04/14 16:24:38;;;;;;;16.85;11.57;;;14.90;99.90;;;;;;10486979;28;20204;-87
2023/04/14 16:29:59;;;;;;;17.60;10.98;;;14.80;99.90;;;;;;10519770;28;20274;-86
2023/04/14 16:35:20;;;;;;;24.88;14.18;;;14.60;99.90;;;;;;10533428;28;20365;-86
2023/04/14 16:40:42;;;;;;;26.65;17.83;;;14.60;99.90;;;;;;10542648;28;20244;-87
2023/04/14 16:46:03;;;;;;;18.67;13.25;;;14.50;99.90;;;;;;10519665;28;20497;-88
2023/04/14 16:51:26;;;;;;;13.88;10.40;;;14.50;99.90;;;;;;10512914;28;20211;-87
2023/04/14 16:56:47;;;;;;;13.23;10.13;;;14.40;99.90;;;;;;10528249;28;20297;-86
2023/04/14 17:02:08;;;;;;;15.77;11.40;;;14.40;99.90;;;;;;10504865;28;20239;-87
2023/04/14 17:07:29;;;;;;;16.27;11.30;;;14.30;99.90;;;;;;10534061;28;20251;-87
2023/04/14 17:12:52;;;;;;;17.90;11.57;;;14.20;99.90;;;;;;10500399;28;20267;-88
2023/04/14 17:18:13;;;;;;;15.70;10.68;;;14.20;99.90;;;;;;10505690;28;20282;-88
2023/04/14 17:23:36;;;;;;;24.88;11.75;;;14.10;99.90;;;;;;10495171;28;20432;-87
2023/04/14 17:28:57;;;;;;;31.52;14.15;;;14.00;99.90;;;;;;10541947;28;20194;-87
2023/04/14 17:34:19;;;;;;;32.78;15.27;;;14.00;99.90;;;;;;10531915;28;20220;-87
2023/04/14 17:39:42;;;;;;;29.90;14.13;;;13.90;99.90;;;;;;10502399;28;20283;-87
2023/04/14 17:45:04;;;;;;;24.85;12.15;;;13.70;99.90;;;;;;10504821;28;20237;-87
2023/04/14 17:50:26;;;;;;;25.25;12.30;;;13.60;99.90;;;;;;10531017;28;20202;-88
2023/04/14 17:55:47;;;;;;;29.02;17.08;;;13.60;99.90;;;;;;10515568;28;20209;-86
2023/04/14 18:01:09;;;;;;;25.88;13.50;;;13.50;99.90;;;;;;10505289;28;20526;-87
2023/04/14 18:06:33;;;;;;;18.70;11.85;;;13.40;99.90;;;;;;10505306;28;20196;-87
2023/04/14 18:11:55;;;;;;;20.02;11.48;;;13.40;99.90;;;;;;10556865;28;20478;-88
2023/04/14 18:17:16;;;;;;;21.58;13.38;;;13.30;99.90;;;;;;10530041;28;20221;-88
2023/04/14 18:22:38;;;;;;;16.88;11.38;;;13.30;99.90;;;;;;10529206;28;20293;-87
2023/04/14 18:27:59;;;;;;;25.58;13.23;;;13.20;99.90;;;;;;10505009;28;20493;-88
2023/04/14 18:33:23;;;;;;;25.67;12.40;;;13.10;99.90;;;;;;10504482;28;20202;-87
2023/04/14 18:38:44;;;;;;;16.35;10.63;;;13.00;99.90;;;;;;10490475;28;20606;-87
2023/04/14 18:44:06;;;;;;;15.43;10.93;;;13.00;99.90;;;;;;10504289;28;20201;-87
2023/04/14 18:49:27;;;;;;;18.02;11.05;;;12.90;99.90;;;;;;10503934;28;20504;-87
2023/04/14 18:54:48;;;;;;;15.98;12.05;;;12.90;99.90;;;;;;10522659;28;20544;-87
2023/04/14 19:00:12;;;;;;;20.00;12.43;;;12.80;99.90;;;;;;10518705;28;20261;-87
2023/04/14 19:05:35;;;;;;;19.73;12.30;;;12.70;99.90;;;;;;10540466;28;20436;-87
2023/04/14 19:10:58;;;;;;;19.52;12.45;;;12.80;99.90;;;;;;10537264;28;20280;-88
2023/04/14 19:16:20;;;;;;;19.53;12.93;;;12.70;99.90;;;;;;10532055;28;20205;-87
2023/04/14 19:21:41;;;;;;;19.63;13.13;;;12.60;99.90;;;;;;10550943;28;20196;-87
2023/04/14 19:27:03;;;;;;;17.60;11.53;;;12.60;99.90;;;;;;10522786;28;20273;-89
2023/04/14 19:32:24;;;;;;;14.73;9.23;;;12.50;99.90;;;;;;10530809;28;20232;-87
2023/04/14 19:37:46;;;;;;;12.33;9.17;;;12.50;99.90;;;;;;10535924;28;20286;-87
2023/04/14 19:43:07;;;;;;;17.00;8.47;;;12.50;99.90;;;;;;10531056;28;20466;-87
2023/04/14 19:48:29;;;;;;;10.53;7.60;;;12.50;99.90;;;;;;10515159;28;20256;-88
2023/04/14 19:53:50;;;;;;;9.53;6.47;;;12.40;99.90;;;;;;10509779;28;20202;-87
2023/04/14 19:59:11;;;;;;;8.88;6.00;;;12.30;99.90;;;;;;10547132;28;20229;-87
2023/04/14 20:04:33;;;;;;;9.47;6.83;;;12.20;99.90;;;;;;10510286;28;20199;-88
2023/04/14 20:09:54;;;;;;;13.63;7.43;;;12.20;99.90;;;;;;10493038;28;20512;-88
2023/04/14 20:15:16;;;;;;;9.87;7.13;;;12.00;99.90;;;;;;10493704;28;20209;-87
2023/04/14 20:20:40;;;;;;;10.13;7.63;;;12.00;99.90;;;;;;10530520;28;20270;-88
2023/04/14 20:26:02;;;;;;;12.03;7.90;;;11.90;99.90;;;;;;10534279;28;20204;-87
2023/04/14 20:31:24;;;;;;;13.17;7.73;;;11.80;99.90;;;;;;10509321;28;20522;-87
2023/04/14 20:36:46;;;;;;;11.93;8.47;;;11.80;99.90;;;;;;10519576;28;20241;-87
2023/04/14 20:42:07;;;;;;;12.60;8.10;;;11.70;99.90;;;;;;10514482;28;20206;-87
2023/04/14 20:47:29;;;;;;;10.63;7.60;;;11.60;99.90;;;;;;10511449;28;20260;-87
2023/04/14 20:52:50;;;;;;;12.70;8.40;;;11.60;99.90;;;;;;10512865;28;20400;-87
2023/04/14 20:58:12;;;;;;;12.63;8.90;;;11.50;99.90;;;;;;10532875;28;20330;-87
2023/04/14 21:03:33;;;;;;;10.93;7.73;;;11.40;99.90;;;;;;10528111;28;20228;-88
2023/04/14 21:08:55;;;;;;;11.77;8.20;;;11.40;99.90;;;;;;10548884;28;20488;-86
2023/04/14 21:14:16;;;;;;;12.07;8.73;;;11.30;99.90;;;;;;10535056;28;20272;-87
2023/04/14 21:19:38;;;;;;;12.20;8.20;;;11.30;99.90;;;;;;10531623;28;20236;-87
2023/04/14 21:24:59;;;;;;;11.23;8.67;;;11.20;99.90;;;;;;10518266;28;20371;-87
2023/04/14 21:30:21;;;;;;;10.97;8.03;;;11.20;99.90;;;;;;10531865;28;20222;-87
2023/04/14 21:35:43;;;;;;;13.27;9.57;;;11.10;99.90;;;;;;10517765;28;20412;-87
2023/04/14 21:41:05;;;;;;;15.03;9.00;;;11.10;99.90;;;;;;10505191;28;20530;-88
2023/04/14 21:46:26;;;;;;;11.50;8.93;;;11.00;99.90;;;;;;10519768;28;20499;-88
2023/04/14 21:51:52;;;;;;;12.63;9.37;;;11.00;99.90;;;;;;10507435;28;20216;-87
2023/04/14 21:57:13;;;;;;;12.87;8.97;;;10.90;99.90;;;;;;10517111;28;20429;-86
2023/04/14 22:02:35;;;;;;;11.07;9.27;;;10.80;99.90;;;;;;10516842;28;20228;-86
2023/04/14 22:07:56;;;;;;;13.43;10.23;;;10.80;99.90;;;;;;10505406;28;20216;-88
2023/04/14 22:13:17;;;;;;;16.50;10.90;;;10.70;99.90;;;;;;10488676;28;20202;-88
2023/04/14 22:18:39;;;;;;;15.57;11.73;;;10.70;99.90;;;;;;10516658;28;20248;-87
2023/04/14 22:24:01;;;;;;;13.80;10.60;;;10.60;99.90;;;;;;10529779;28;20197;-89
2023/04/14 22:29:22;;;;;;;19.77;10.90;;;10.60;99.90;;;;;;10529747;28;20207;-88
2023/04/14 22:34:44;;;;;;;19.90;11.80;;;10.50;99.90;;;;;;10527150;28;20201;-87
2023/04/14 22:40:06;;;;;;;13.83;11.03;;;10.50;99.90;;;;;;10504438;28;20287;-88
2023/04/14 22:45:27;;;;;;;15.93;11.83;;;10.50;99.90;;;;;;10500239;28;20219;-86
2023/04/14 22:50:49;;;;;;;15.63;11.07;;;10.50;99.90;;;;;;10490283;28;20289;-87
2023/04/14 22:56:10;;;;;;;15.37;11.70;;;10.40;99.90;;;;;;10463195;28;20236;-86
2023/04/14 23:01:31;;;;;;;13.50;11.47;;;10.30;99.90;;;;;;10462665;28;20527;-85
2023/04/14 23:06:53;;;;;;;23.63;13.80;;;10.30;99.90;;;;;;10462383;28;20221;-87
2023/04/14 23:12:14;;;;;;;19.07;13.50;;;10.30;99.90;;;;;;10498869;28;20232;-87
2023/04/14 23:17:35;;;;;;;18.37;14.13;;;10.30;99.90;;;;;;10503732;28;20212;-87
2023/04/14 23:22:57;;;;;;;16.97;13.27;;;10.20;99.90;;;;;;10498736;28;20204;-87
2023/04/14 23:28:18;;;;;;;17.80;13.43;;;10.20;99.90;;;;;;10503565;28;20228;-87
2023/04/14 23:33:40;;;;;;;15.93;12.93;;;10.20;99.90;;;;;;10503318;28;20201;-88
2023/04/14 23:39:02;;;;;;;18.63;12.87;;;10.20;99.90;;;;;;10516468;28;20241;-87
2023/04/14 23:44:24;;;;;;;18.77;12.50;;;10.30;99.90;;;;;;10481203;28;20228;-88
2023/04/14 23:49:46;;;;;;;15.77;12.73;;;10.40;99.90;;;;;;10488306;28;20208;-86
2023/04/14 23:55:08;;;;;;;18.63;13.23;;;10.50;99.90;;;;;;10484115;28;20256;-86
